Time;durP1;ratioP1;P1;durP2;ratioP2;P2;SDS_P1;SDS_P2;PMS_P1;PMS_P2;Temp;Humidity;BMP_temperature;BMP_pressure;BME280_temperature;BME280_humidity;BME280_pressure;Samples;Min_cycle;Max_cycle;Signal;HPM_P1;HPM_P2
2022/09/11 00:00:04;;;;;;;21.20;16.75;;;;;;;16.81;65.80;101860.50;5218433;28;20056;-44
2022/09/11 00:02:37;;;;;;;31.73;21.00;;;;;;;16.77;65.67;101864.50;5209314;28;20450;-47
2022/09/11 00:05:11;;;;;;;23.50;18.45;;;;;;;16.70;66.02;101864.31;5188440;28;20801;-43
2022/09/11 00:07:43;;;;;;;28.92;20.58;;;;;;;16.66;65.80;101868.31;5211451;28;20493;-39
2022/09/11 00:10:16;;;;;;;23.65;17.02;;;;;;;16.61;65.71;101859.97;5210480;28;21282;-45
2022/09/11 00:12:48;;;;;;;30.02;19.20;;;;;;;16.65;65.97;101866.63;5202051;28;20400;-43
2022/09/11 00:15:21;;;;;;;31.17;21.40;;;;;;;16.63;65.85;101857.13;5208557;28;20123;-47
2022/09/11 00:17:55;;;;;;;35.38;23.60;;;;;;;16.58;65.88;101865.63;5210562;28;20072;-47
2022/09/11 00:20:30;;;;;;;28.73;21.70;;;;;;;16.53;66.16;101862.59;5213547;28;20044;-40
2022/09/11 00:23:04;;;;;;;26.60;20.48;;;;;;;16.46;66.27;101858.94;5204941;28;20040;-47
2022/09/11 00:25:39;;;;;;;25.80;19.35;;;;;;;16.45;66.11;101866.09;5217875;28;20039;-41
2022/09/11 00:28:14;;;;;;;34.05;22.40;;;;;;;16.42;66.22;101863.78;5213099;28;20409;-45
2022/09/11 00:30:57;;;;;;;30.33;20.60;;;;;;;16.36;66.30;101867.09;5215521;28;20075;-41
2022/09/11 00:33:30;;;;;;;30.23;22.02;;;;;;;16.27;66.28;101854.72;5207717;28;20516;-46
2022/09/11 00:36:06;;;;;;;;;;;;;;;16.30;66.40;101862.41;5207259;28;20492;-41
2022/09/11 00:38:40;;;;;;;25.15;19.25;;;;;;;16.20;66.47;101853.72;5202454;28;19920;-41
2022/09/11 00:41:16;;;;;;;29.67;23.38;;;;;;;16.24;66.55;101873.72;5200497;28;20051;-40
2022/09/11 00:43:59;;;;;;;32.47;23.02;;;;;;;16.18;66.46;101853.03;5201811;28;20561;-44
2022/09/11 00:46:39;;;;;;;32.45;22.15;;;;;;;16.18;66.47;101861.84;5197522;28;20040;-45
2022/09/11 00:49:21;;;;;;;33.65;23.90;;;;;;;16.16;66.56;101871.00;5201592;28;20547;-41
2022/09/11 00:52:01;;;;;;;31.63;22.92;;;;;;;16.11;66.56;101867.00;5191709;28;20126;-37
2022/09/11 00:54:38;;;;;;;33.72;21.55;;;;;;;16.08;66.59;101870.00;5185909;28;20439;-40
2022/09/11 00:57:11;;;;;;;33.80;22.85;;;;;;;15.99;66.62;101870.13;5197182;28;20442;-39
2022/09/11 00:59:46;;;;;;;29.85;22.63;;;;;;;16.01;66.56;101868.97;5196940;28;20489;-40
2022/09/11 01:02:21;;;;;;;34.10;22.08;;;;;;;15.89;66.74;101856.94;5193934;28;20401;-44
2022/09/11 01:04:54;;;;;;;33.45;25.08;;;;;;;15.95;66.87;101866.94;5195946;28;20543;-44
2022/09/11 01:07:30;;;;;;;39.83;24.52;;;;;;;15.88;66.89;101863.22;5195740;28;20953;-35
2022/09/11 01:10:03;;;;;;;35.00;23.88;;;;;;;15.85;66.93;101868.88;5187647;28;20082;-45
2022/09/11 01:16:32;;;;;;;31.75;21.95;;;;;;;15.77;66.92;101872.34;5207751;28;20605;-46
2022/09/11 01:19:16;;;;;;;35.42;23.33;;;;;;;15.77;67.07;101882.16;5190831;28;20139;-46
2022/09/11 01:22:33;;;;;;;36.22;24.73;;;;;;;15.77;67.14;101871.53;5197974;28;20488;-39
2022/09/11 01:25:26;;;;;;;41.30;27.80;;;;;;;15.73;67.07;101870.16;5198745;28;20083;-45
2022/09/11 01:28:23;;;;;;;41.33;25.30;;;;;;;15.68;67.16;101867.97;5212710;28;20059;-44
2022/09/11 01:31:00;;;;;;;36.90;24.30;;;;;;;15.65;67.12;101870.91;5192922;28;20086;-41
2022/09/11 01:33:40;;;;;;;38.40;24.30;;;;;;;15.65;67.25;101879.75;5186151;28;20056;-38
2022/09/11 01:36:19;;;;;;;41.55;24.50;;;;;;;15.60;67.16;101871.38;5194236;28;20044;-39
2022/09/11 01:38:56;;;;;;;36.13;25.23;;;;;;;15.58;66.97;101873.38;5200396;28;20053;-45
2022/09/11 01:41:34;;;;;;;34.92;22.88;;;;;;;15.55;67.17;101868.38;5189166;28;20475;-42
2022/09/11 01:44:14;;;;;;;39.55;25.77;;;;;;;15.47;67.31;101865.66;5191479;28;20122;-46
2022/09/11 01:46:49;;;;;;;35.25;23.85;;;;;;;15.53;67.35;101874.84;5199548;28;22121;-41
2022/09/11 01:49:27;;;;;;;32.97;22.13;;;;;;;15.51;67.35;101880.31;5195022;28;20036;-43
2022/09/11 01:52:04;;;;;;;40.22;24.38;;;;;;;15.45;67.39;101879.13;5195563;28;20436;-42
2022/09/11 01:54:45;;;;;;;36.83;23.60;;;;;;;15.47;67.39;101880.78;5198966;28;20037;-38
2022/09/11 01:57:25;;;;;;;37.05;24.08;;;;;;;15.42;67.57;101883.91;5189983;28;20186;-45
2022/09/11 02:00:06;;;;;;;42.17;26.25;;;;;;;15.40;67.49;101878.75;5194964;28;20052;-40
2022/09/11 02:02:42;;;;;;;36.67;24.88;;;;;;;15.32;67.60;101872.53;5190956;28;20435;-41
2022/09/11 02:05:19;;;;;;;33.55;24.08;;;;;;;15.39;67.45;101894.84;5196873;28;20182;-44
2022/09/11 02:07:58;;;;;;;36.17;25.58;;;;;;;15.33;67.56;101879.50;5188453;28;20170;-44
2022/09/11 02:10:34;;;;;;;36.58;25.65;;;;;;;15.28;67.63;101876.50;5180800;28;20525;-42
2022/09/11 02:13:14;;;;;;;50.33;25.73;;;;;;;15.28;67.67;101887.16;5202329;28;20044;-40
2022/09/11 02:15:54;;;;;;;43.78;27.45;;;;;;;15.19;67.75;101867.63;5215794;28;20452;-41
2022/09/11 02:18:35;;;;;;;54.03;29.13;;;;;;;15.23;67.67;101883.09;5193699;28;20040;-33
2022/09/11 02:21:08;;;;;;;40.08;26.98;;;;;;;15.12;67.90;101864.75;5200729;28;20048;-45
2022/09/11 02:23:41;;;;;;;44.25;24.45;;;;;;;15.22;67.88;101878.78;5195822;28;20567;-40
2022/09/11 02:26:14;;;;;;;30.98;23.10;;;;;;;15.14;67.73;101873.41;5199227;28;20119;-46
2022/09/11 02:28:47;;;;;;;34.95;23.58;;;;;;;15.14;67.88;101876.06;5194958;28;20399;-39
2022/09/11 02:31:22;;;;;;;37.00;23.88;;;;;;;15.15;67.87;101888.38;5189121;28;20051;-41
2022/09/11 02:33:56;;;;;;;40.45;24.73;;;;;;;15.08;67.82;101876.69;5202664;28;20048;-41
2022/09/11 02:36:57;;;;;;;36.10;24.58;;;;;;;15.13;67.89;101892.19;5194203;28;20044;-44
2022/09/11 02:39:59;;;;;;;46.85;27.83;;;;;;;15.06;68.07;101883.16;5192741;28;20087;-44
2022/09/11 02:42:47;;;;;;;43.25;27.10;;;;;;;15.05;67.95;101887.66;5187076;28;20608;-40
2022/09/11 02:45:34;;;;;;;43.05;27.95;;;;;;;15.02;67.95;101887.09;5198794;28;20131;-43
2022/09/11 02:48:27;;;;;;;37.10;25.50;;;;;;;15.01;68.11;101888.91;5195950;28;20342;-43
2022/09/11 02:51:08;;;;;;;43.95;27.45;;;;;;;15.00;68.08;101889.91;5193926;28;20094;-41
2022/09/11 02:53:49;;;;;;;35.35;23.73;;;;;;;14.93;68.08;101883.53;5191894;28;20141;-39
2022/09/11 02:56:31;;;;;;;39.92;24.58;;;;;;;14.96;68.07;101899.19;5194343;28;20059;-39
2022/09/11 02:59:10;;;;;;;46.20;27.40;;;;;;;14.86;68.30;101882.47;5188176;28;20501;-43
2022/09/11 03:01:53;;;;;;;44.65;27.20;;;;;;;14.87;68.35;101887.66;5203840;28;20095;-44
2022/09/11 03:04:28;;;;;;;44.95;25.90;;;;;;;14.83;68.29;101888.91;5199722;28;20059;-41
2022/09/11 03:07:01;;;;;;;41.33;26.77;;;;;;;14.79;68.23;101882.25;5202519;28;20092;-43
2022/09/11 03:09:33;;;;;;;;;;;;;;;14.87;68.30;101898.28;5197168;28;20793;-41
2022/09/11 03:12:06;;;;;;;44.03;26.25;;;;;;;14.76;68.13;101886.03;5203427;28;19924;-45
2022/09/11 03:14:39;;;;;;;36.97;25.05;;;;;;;14.74;68.34;101889.81;5199017;28;20044;-43
2022/09/11 03:17:12;;;;;;;42.00;26.38;;;;;;;14.72;68.25;101897.13;5203690;28;20437;-39
2022/09/11 03:19:46;;;;;;;;;;;;;;;14.79;68.34;101908.00;5199864;28;20052;-41
2022/09/11 03:22:18;;;;;;;;;;;;;;;14.78;68.38;101912.50;5200325;28;20549;-40
2022/09/11 03:25:00;;;;;;;44.20;26.88;;;;;;;14.75;68.47;101904.81;5212858;28;20016;-42
2022/09/11 03:27:33;;;;;;;53.25;29.67;;;;;;;14.66;68.39;101893.25;5193596;28;20044;-40
2022/09/11 03:30:07;;;;;;;41.90;25.73;;;;;;;14.65;68.63;101891.59;5193171;28;20049;-39
2022/09/11 03:32:39;;;;;;;40.30;26.17;;;;;;;14.71;68.39;101900.75;5199468;28;20051;-39
2022/09/11 03:35:13;;;;;;;37.38;24.75;;;;;;;14.72;68.39;101900.63;5199640;28;20465;-44
2022/09/11 03:37:46;;;;;;;37.22;26.15;;;;;;;14.60;68.34;101893.84;5193062;28;20068;-38
2022/09/11 03:40:19;;;;;;;47.58;27.95;;;;;;;14.69;68.45;101914.22;5201794;28;20109;-41
2022/09/11 03:42:51;;;;;;;42.20;27.48;;;;;;;14.68;68.32;101901.94;5203858;28;20555;-40
2022/09/11 03:45:24;;;;;;;38.88;24.67;;;;;;;14.64;68.22;101900.53;5201241;28;20118;-40
2022/09/11 03:47:56;;;;;;;37.85;25.83;;;;;;;14.57;68.26;101883.53;5200553;28;20087;-40
2022/09/11 03:50:30;;;;;;;42.05;25.92;;;;;;;14.63;68.41;101895.38;5192653;28;20072;-42
2022/09/11 03:53:03;;;;;;;42.25;26.10;;;;;;;14.65;68.36;101896.91;5209182;28;20137;-41
2022/09/11 03:55:35;;;;;;;38.45;24.50;;;;;;;14.60;68.37;101896.50;5196261;28;20492;-41
2022/09/11 03:58:08;;;;;;;40.70;26.75;;;;;;;14.60;68.26;101898.34;5202206;28;20439;-42
2022/09/11 04:00:42;;;;;;;45.30;25.50;;;;;;;14.59;68.49;101902.81;5201780;28;20166;-43
2022/09/11 04:03:16;;;;;;;40.28;24.10;;;;;;;14.49;68.42;101888.72;5203401;28;20040;-39
2022/09/11 04:05:59;;;;;;;49.85;27.92;;;;;;;14.52;68.45;101899.06;5201628;28;20500;-41
2022/09/11 04:08:33;;;;;;;45.42;26.83;;;;;;;14.49;68.45;101902.84;5198184;28;20477;-40
2022/09/11 04:11:06;;;;;;;;;;;;;;;14.53;68.62;101914.88;5201232;28;20873;-41
2022/09/11 04:13:41;;;;;;;40.88;24.75;;;;;;;14.41;68.59;101904.59;5200940;28;19943;-42
2022/09/11 04:16:16;;;;;;;40.30;25.17;;;;;;;14.45;68.52;101911.25;5202893;28;20288;-39
2022/09/11 04:18:50;;;;;;;35.80;23.00;;;;;;;14.49;68.55;101915.28;5201836;28;20118;-46
2022/09/11 04:21:24;;;;;;;39.92;26.27;;;;;;;14.42;68.53;101916.88;5200926;28;20107;-38
2022/09/11 04:23:58;;;;;;;37.30;23.98;;;;;;;14.34;68.74;101900.81;5202136;28;20342;-43
2022/09/11 04:26:33;;;;;;;36.83;22.67;;;;;;;14.31;68.75;101909.97;5199481;28;20401;-38
2022/09/11 04:29:05;;;;;;;39.85;24.08;;;;;;;14.36;68.79;101917.47;5199075;28;20158;-39
2022/09/11 04:31:39;;;;;;;42.75;25.08;;;;;;;14.42;68.75;101922.19;5195406;28;20495;-39
2022/09/11 04:34:11;;;;;;;35.40;23.30;;;;;;;14.39;68.59;101925.16;5203356;28;20049;-40
2022/09/11 04:36:45;;;;;;;40.55;25.98;;;;;;;14.30;68.74;101919.72;5202791;28;20558;-41
2022/09/11 04:39:17;;;;;;;33.95;22.92;;;;;;;14.34;68.77;101938.03;5200985;28;21860;-39
2022/09/11 04:41:50;;;;;;;38.95;24.75;;;;;;;14.35;68.90;101926.44;5197273;28;20108;-44
2022/09/11 04:44:23;;;;;;;43.35;26.45;;;;;;;14.29;68.88;101930.50;5201609;28;20075;-39
2022/09/11 04:46:56;;;;;;;;;;;;;;;14.34;68.86;101940.69;5202127;28;20453;-39
2022/09/11 04:49:28;;;;;;;52.95;28.27;;;;;;;14.32;68.97;101942.69;5202583;28;20005;-39
2022/09/11 04:52:04;;;;;;;48.15;27.23;;;;;;;14.29;69.09;101944.63;5194780;28;20111;-41
2022/09/11 04:54:40;;;;;;;41.92;26.38;;;;;;;14.18;69.08;101930.69;5201892;28;20062;-42
2022/09/11 04:57:13;;;;;;;45.17;27.83;;;;;;;14.24;69.12;101938.91;5199336;28;20056;-40
2022/09/11 04:59:46;;;;;;;42.28;25.60;;;;;;;14.21;69.02;101944.53;5202237;28;20059;-39
2022/09/11 05:02:20;;;;;;;44.75;26.65;;;;;;;14.17;68.88;101929.88;5187607;28;20057;-41
2022/09/11 05:04:53;;;;;;;36.15;23.10;;;;;;;14.23;68.91;101939.91;5193995;28;20385;-41
2022/09/11 05:07:27;;;;;;;47.03;27.38;;;;;;;14.25;68.93;101943.25;5197815;28;20187;-44
2022/09/11 05:09:59;;;;;;;46.20;29.00;;;;;;;14.27;68.95;101946.59;5194828;28;20041;-43
2022/09/11 05:12:32;;;;;;;55.58;30.40;;;;;;;14.23;69.02;101944.38;5199891;28;20505;-43
2022/09/11 05:15:05;;;;;;;54.97;28.58;;;;;;;14.27;68.81;101945.75;5199236;28;20117;-40
2022/09/11 05:17:38;;;;;;;48.45;29.02;;;;;;;14.34;68.90;101961.94;5205930;28;20141;-42
2022/09/11 05:20:11;;;;;;;46.83;27.80;;;;;;;14.34;68.64;101956.63;5200662;28;20447;-44
2022/09/11 05:22:45;;;;;;;55.65;30.15;;;;;;;14.28;68.74;101942.13;5200369;28;20504;-41
2022/09/11 05:25:18;;;;;;;51.63;28.13;;;;;;;14.32;68.80;101948.00;5197979;28;20048;-41
2022/09/11 05:27:53;;;;;;;68.60;34.88;;;;;;;14.44;68.79;101960.09;5200203;28;20048;-41
2022/09/11 05:30:26;;;;;;;70.03;35.30;;;;;;;14.49;68.58;101960.47;5191638;28;20285;-42
2022/09/11 05:32:59;;;;;;;75.78;37.25;;;;;;;14.50;68.43;101943.56;5187729;28;20338;-41
2022/09/11 05:35:31;;;;;;;68.72;35.40;;;;;;;14.56;68.54;101948.31;5201335;28;20449;-41
2022/09/11 05:38:05;;;;;;;51.65;28.15;;;;;;;14.66;68.42;101959.72;5200171;28;20565;-42
2022/09/11 05:40:43;;;;;;;39.92;25.63;;;;;;;14.72;68.37;101956.47;5196024;28;20124;-43
2022/09/11 05:43:16;;;;;;;42.00;24.88;;;;;;;14.76;68.37;101963.16;5197696;28;20385;-45
2022/09/11 05:45:55;;;;;;;38.33;26.05;;;;;;;14.81;68.40;101953.91;5198202;28;20393;-42
2022/09/11 05:48:29;;;;;;;38.63;22.90;;;;;;;14.86;68.25;101967.56;5195280;28;20106;-34
2022/09/11 05:51:05;;;;;;;39.95;24.05;;;;;;;14.91;68.33;101967.97;5198720;28;20437;-41
2022/09/11 05:53:40;;;;;;;36.72;23.50;;;;;;;14.95;68.33;101967.50;5199246;28;20416;-40
2022/09/11 05:56:15;;;;;;;43.05;25.13;;;;;;;14.92;68.23;101956.31;5199822;28;20523;-39
2022/09/11 05:58:50;;;;;;;37.50;24.35;;;;;;;15.04;68.02;101981.72;5198629;28;20524;-42
2022/09/11 06:01:28;;;;;;;36.88;23.65;;;;;;;15.16;68.09;101980.50;5208614;28;20438;-43
2022/09/11 06:04:01;;;;;;;29.70;22.10;;;;;;;15.20;67.96;101975.72;5192755;28;20436;-38
2022/09/11 06:06:33;;;;;;;33.97;22.13;;;;;;;15.24;67.96;101982.44;5194215;28;20296;-48
2022/09/11 06:09:10;;;;;;;27.23;20.67;;;;;;;15.37;67.90;101982.03;5192290;28;20404;-40
2022/09/11 06:11:43;;;;;;;32.55;22.60;;;;;;;15.39;67.83;101980.03;5195655;28;20131;-41
2022/09/11 06:14:15;;;;;;;31.77;22.80;;;;;;;15.54;67.69;102001.63;5200822;28;20142;-45
2022/09/11 06:16:48;;;;;;;35.20;22.20;;;;;;;15.53;67.51;101991.97;5200166;28;20429;-36
2022/09/11 06:19:20;;;;;;;37.47;25.35;;;;;;;15.66;67.43;101981.75;5197757;28;20048;-40
2022/09/11 06:21:53;;;;;;;57.42;29.95;;;;;;;15.82;67.63;102002.38;5198741;28;20517;-40
2022/09/11 06:24:27;;;;;;;46.85;30.10;;;;;;;15.90;67.13;101986.47;5196977;28;20048;-41
2022/09/11 06:26:59;;;;;;;39.00;25.92;;;;;;;16.06;66.77;101983.06;5201756;28;20451;-38
2022/09/11 06:29:32;;;;;;;32.80;23.75;;;;;;;16.20;66.69;101979.00;5199730;28;20076;-41
2022/09/11 06:32:05;;;;;;;25.00;19.45;;;;;;;16.38;66.52;101985.03;5198235;28;20064;-39
2022/09/11 06:34:38;;;;;;;29.20;22.00;;;;;;;16.65;66.43;101988.50;5200544;28;20041;-42
2022/09/11 06:37:10;;;;;;;29.67;21.85;;;;;;;17.23;66.00;101987.66;5197160;28;20382;-42
2022/09/11 06:39:44;;;;;;;27.50;18.70;;;;;;;17.89;65.25;102005.34;5200329;28;20048;-42
2022/09/11 06:42:18;;;;;;;21.55;14.75;;;;;;;19.25;64.52;101991.72;5199800;28;20061;-41
2022/09/11 06:44:50;;;;;;;17.25;12.35;;;;;;;21.63;62.00;101993.22;5201918;28;20056;-43
2022/09/11 06:47:23;;;;;;;;;;;;;;;24.03;59.45;101988.56;5190610;28;20059;-43
2022/09/11 06:49:58;;;;;;;13.77;9.68;;;;;;;26.19;57.03;101999.25;5192808;28;19920;-44
2022/09/11 06:52:34;;;;;;;13.52;7.25;;;;;;;28.13;54.54;101991.75;5197176;28;20127;-43
2022/09/11 06:55:12;;;;;;;8.75;7.07;;;;;;;29.88;52.88;101998.16;5200431;28;20457;-41
2022/09/11 06:57:44;;;;;;;8.93;6.63;;;;;;;31.30;51.66;101997.31;5200561;28;20465;-43
2022/09/11 07:01:04;;;;;;;8.98;4.75;;;;;;;32.74;50.00;101999.75;5204785;28;20332;-44
2022/09/11 07:03:37;;;;;;;8.20;5.18;;;;;;;33.91;47.93;101987.91;5190486;28;20431;-45
2022/09/11 07:06:10;;;;;;;9.32;4.55;;;;;;;34.96;46.00;102004.38;5199652;28;20041;-43
2022/09/11 07:08:42;;;;;;;;;;;;;;;35.85;44.38;102009.63;5203780;28;20680;-39
2022/09/11 07:11:16;;;;;;;5.70;3.63;;;;;;;36.62;42.10;102009.50;5195463;28;19920;-39
2022/09/11 07:13:49;;;;;;;7.55;2.90;;;;;;;37.24;40.85;102001.09;5202305;28;20381;-44
2022/09/11 07:16:21;;;;;;;5.60;3.35;;;;;;;37.83;39.74;102003.03;5206015;28;20507;-43
2022/09/11 07:18:54;;;;;;;5.28;3.15;;;;;;;38.12;38.04;102004.66;5214377;28;20434;-47
2022/09/11 07:21:27;;;;;;;7.53;2.83;;;;;;;38.38;37.42;102012.38;5205320;28;20505;-43
2022/09/11 07:24:01;;;;;;;5.15;2.75;;;;;;;38.47;36.73;101999.50;5200255;28;20036;-44
2022/09/11 07:26:35;;;;;;;6.88;3.15;;;;;;;38.64;35.98;102012.63;5213909;28;20538;-45
2022/09/11 07:29:08;;;;;;;11.27;4.15;;;;;;;39.05;34.88;102018.00;5212369;28;20072;-45
2022/09/11 07:31:41;;;;;;;6.93;3.65;;;;;;;39.42;33.69;101997.44;5206348;28;20844;-44
2022/09/11 07:34:14;;;;;;;8.10;3.83;;;;;;;39.84;33.21;101997.13;5205171;28;20040;-45
2022/09/11 07:36:46;;;;;;;10.50;3.63;;;;;;;40.09;32.54;102009.41;5205422;28;20106;-46
2022/09/11 07:39:19;;;;;;;9.25;3.47;;;;;;;40.10;31.99;102011.03;5204707;28;20040;-42
2022/09/11 07:41:53;;;;;;;8.45;3.55;;;;;;;40.09;31.93;102014.94;5202175;28;20067;-44
2022/09/11 07:44:25;;;;;;;7.18;3.47;;;;;;;40.24;31.42;102019.22;5200918;28;20044;-44
2022/09/11 07:46:59;;;;;;;8.77;3.72;;;;;;;40.36;30.52;102013.88;5199149;28;20062;-36
2022/09/11 07:49:32;;;;;;;6.75;3.45;;;;;;;40.28;30.45;102001.63;5199493;28;20228;-45
2022/09/11 07:52:05;;;;;;;8.77;3.13;;;;;;;40.00;30.49;101995.53;5195019;28;20309;-46
2022/09/11 07:54:38;;;;;;;7.15;2.80;;;;;;;40.05;30.26;102008.41;5203298;28;20200;-46
2022/09/11 07:57:12;;;;;;;8.50;2.60;;;;;;;40.17;29.79;102005.88;5204810;28;20147;-48
2022/09/11 07:59:45;;;;;;;4.90;2.58;;;;;;;40.00;29.64;102003.03;5201373;28;20045;-48
2022/09/11 08:02:18;;;;;;;3.20;2.20;;;;;;;40.27;29.61;102013.84;5203710;28;20048;-44
2022/09/11 08:04:51;;;;;;;5.25;2.45;;;;;;;39.98;27.32;102002.53;5203921;28;20137;-45
2022/09/11 08:07:24;;;;;;;3.75;1.92;;;;;;;39.36;27.39;102004.22;5202580;28;20095;-49
2022/09/11 08:09:56;;;;;;;7.97;2.58;;;;;;;39.08;28.01;101999.97;5200213;28;20130;-51
2022/09/11 08:12:31;;;;;;;4.53;1.95;;;;;;;39.09;27.89;102009.91;5200068;28;20068;-46
2022/09/11 08:15:03;;;;;;;3.45;1.70;;;;;;;39.18;28.00;102003.31;5207975;28;20124;-48
2022/09/11 08:17:36;;;;;;;2.17;1.77;;;;;;;39.14;27.72;101995.94;5206005;28;20496;-49
2022/09/11 08:20:09;;;;;;;7.65;1.88;;;;;;;39.12;27.67;102020.34;5206719;28;20131;-50
2022/09/11 08:22:42;;;;;;;17.08;2.03;;;;;;;39.08;28.08;102017.38;5204560;28;20052;-47
2022/09/11 08:25:15;;;;;;;4.18;1.60;;;;;;;38.88;27.85;101999.38;5213405;28;20512;-45
2022/09/11 08:27:58;;;;;;;4.03;1.48;;;;;;;39.03;27.84;102011.19;5202747;28;22131;-45
2022/09/11 08:30:31;;;;;;;6.85;2.40;;;;;;;39.17;27.51;102012.72;5199167;28;20049;-50
2022/09/11 08:33:04;;;;;;;5.00;1.73;;;;;;;39.18;27.68;102014.34;5218597;28;20045;-46
2022/09/11 08:35:37;;;;;;;5.00;1.48;;;;;;;38.95;27.01;102015.50;5222326;28;20519;-45
2022/09/11 08:38:13;;;;;;;4.45;1.45;;;;;;;38.67;27.21;102021.09;5208508;28;20124;-46
2022/09/11 08:40:48;;;;;;;4.15;1.40;;;;;;;38.52;27.04;102014.00;5203760;28;20374;-48
2022/09/11 08:43:26;;;;;;;6.22;1.83;;;;;;;38.00;27.19;102024.50;5201912;28;20045;-50
2022/09/11 08:46:05;;;;;;;3.58;1.50;;;;;;;37.86;27.59;102018.13;5205258;28;20056;-48
2022/09/11 08:48:46;;;;;;;7.38;1.42;;;;;;;37.84;27.56;102014.84;5200655;28;20087;-52
2022/09/11 08:51:19;;;;;;;5.22;1.40;;;;;;;37.42;27.33;102025.00;5198741;28;20049;-51
2022/09/11 08:53:53;;;;;;;3.53;1.63;;;;;;;37.03;27.99;102025.41;5203997;28;20480;-46
2022/09/11 08:56:29;;;;;;;5.10;1.40;;;;;;;36.86;27.96;102020.44;5213033;28;20048;-49
2022/09/11 08:59:18;;;;;;;3.47;1.27;;;;;;;36.62;27.65;102024.09;5201209;28;20155;-48
2022/09/11 09:02:02;;;;;;;5.50;1.77;;;;;;;36.37;28.04;102033.50;5203309;28;20492;-44
2022/09/11 09:04:52;;;;;;;3.80;1.60;;;;;;;35.96;28.03;102027.66;5200203;28;20044;-47
2022/09/11 09:07:37;;;;;;;4.00;1.65;;;;;;;35.63;27.81;102019.22;5199047;28;20056;-47
2022/09/11 09:10:23;;;;;;;2.50;1.40;;;;;;;35.50;27.86;102025.38;5200779;28;20053;-53
2022/09/11 09:13:08;;;;;;;5.45;1.58;;;;;;;35.21;27.98;102028.09;5197474;28;20439;-50
2022/09/11 09:15:53;;;;;;;2.60;1.17;;;;;;;34.51;28.04;102020.03;5200421;28;20049;-47
2022/09/11 09:18:36;;;;;;;2.97;1.15;;;;;;;34.06;28.34;102021.88;5206279;28;20640;-47
2022/09/11 09:21:15;;;;;;;4.97;1.65;;;;;;;33.63;28.65;102027.69;5194957;28;20434;-49
2022/09/11 09:23:53;;;;;;;4.35;1.40;;;;;;;32.66;29.78;102024.88;5212801;28;20531;-47
2022/09/11 09:26:34;;;;;;;3.03;1.40;;;;;;;31.40;31.68;102029.34;5203885;28;20429;-47
2022/09/11 09:29:14;;;;;;;5.13;1.60;;;;;;;30.74;32.69;102035.78;5199383;28;20101;-48
2022/09/11 09:31:50;;;;;;;3.22;1.35;;;;;;;30.20;33.35;102030.25;5199223;28;20086;-47
2022/09/11 09:34:26;;;;;;;4.25;1.48;;;;;;;29.58;34.31;102030.38;5196407;28;20394;-47
2022/09/11 09:37:06;;;;;;;3.53;1.60;;;;;;;29.47;34.47;102039.44;5200735;28;20036;-51
2022/09/11 09:39:39;;;;;;;2.33;1.35;;;;;;;29.33;34.75;102028.91;5196707;28;20093;-46
2022/09/11 09:42:40;;;;;;;5.97;1.30;;;;;;;29.13;34.98;102028.53;5202084;28;20060;-47
2022/09/11 09:45:36;;;;;;;9.10;1.70;;;;;;;29.17;34.94;102035.13;5204282;28;20075;-46
2022/09/11 09:48:11;;;;;;;6.00;2.13;;;;;;;29.22;34.80;102037.94;5198460;28;20170;-46
2022/09/11 09:50:44;;;;;;;6.82;1.30;;;;;;;29.38;34.68;102033.59;5201587;28;20044;-45
2022/09/11 09:53:27;;;;;;;5.32;1.48;;;;;;;29.32;34.79;102038.13;5197231;28;20052;-47
2022/09/11 09:56:02;;;;;;;4.97;1.63;;;;;;;29.19;35.20;102046.59;5196059;28;20439;-46
2022/09/11 09:58:40;;;;;;;4.13;1.75;;;;;;;29.13;35.19;102033.97;5210261;28;20492;-49
2022/09/11 10:01:44;;;;;;;3.95;1.67;;;;;;;29.08;35.32;102042.03;5198026;28;20089;-53
2022/09/11 10:04:22;;;;;;;5.47;1.52;;;;;;;28.85;35.71;102038.34;5200686;28;20684;-51
2022/09/11 10:07:09;;;;;;;4.57;1.42;;;;;;;28.44;36.20;102032.09;5199221;28;20072;-48
2022/09/11 10:09:47;;;;;;;3.65;1.55;;;;;;;28.18;36.62;102038.88;5190061;28;20456;-45
2022/09/11 10:12:23;;;;;;;4.20;1.45;;;;;;;28.02;37.00;102039.56;5200178;28;20056;-46
2022/09/11 10:14:58;;;;;;;3.15;1.45;;;;;;;28.04;36.90;102042.91;5196915;28;20052;-44
2022/09/11 10:17:35;;;;;;;3.40;1.63;;;;;;;27.88;37.33;102044.44;5191322;28;20443;-46
2022/09/11 10:20:25;;;;;;;3.80;1.55;;;;;;;27.57;37.80;102049.09;5198850;28;20465;-43
2022/09/11 10:23:25;;;;;;;4.00;1.42;;;;;;;27.27;38.46;102051.06;5190179;28;20128;-35
2022/09/11 10:25:58;;;;;;;4.85;1.60;;;;;;;26.88;38.89;102040.53;5184970;28;20099;-38
2022/09/11 10:28:33;;;;;;;2.63;1.70;;;;;;;26.76;39.24;102046.94;5200670;28;20102;-52
2022/09/11 10:31:06;;;;;;;6.47;1.88;;;;;;;26.71;38.83;102036.78;5194210;28;20047;-46
2022/09/11 10:33:40;;;;;;;;;;;;;;;26.87;38.79;102046.16;5198401;28;20441;-48
2022/09/11 10:36:21;;;;;;;5.00;1.67;;;;;;;26.87;38.71;102046.16;5200554;28;20557;-49
2022/09/11 10:38:54;;;;;;;5.68;1.50;;;;;;;26.75;38.72;102029.84;5197803;28;20052;-47
2022/09/11 10:41:33;;;;;;;2.40;1.70;;;;;;;26.75;38.61;102029.03;5201646;28;20130;-47
2022/09/11 10:44:13;;;;;;;6.53;2.13;;;;;;;26.70;38.50;102035.16;5197168;28;20072;-47
2022/09/11 10:46:45;;;;;;;3.28;1.77;;;;;;;26.55;38.67;102040.94;5194233;28;20069;-43
2022/09/11 10:49:19;;;;;;;;;;;;;;;26.50;38.67;102039.97;5205302;28;20102;-45
2022/09/11 10:52:04;;;;;;;5.72;1.90;;;;;;;26.44;38.74;102044.38;5207414;28;20299;-49
2022/09/11 10:55:00;;;;;;;1.95;1.50;;;;;;;26.30;38.54;102037.47;5191882;28;20396;-47
2022/09/11 10:57:39;;;;;;;4.30;1.98;;;;;;;25.96;39.22;102037.00;5199284;28;20401;-50
2022/09/11 11:00:24;;;;;;;5.05;2.72;;;;;;;25.85;39.43;102024.19;5196576;28;20052;-51
2022/09/11 11:03:00;;;;;;;4.22;1.75;;;;;;;25.60;40.02;102033.09;5198653;28;20218;-45
2022/09/11 11:05:41;;;;;;;5.05;1.75;;;;;;;25.48;40.10;102035.69;5204315;28;20350;-48
2022/09/11 11:08:36;;;;;;;1.98;1.40;;;;;;;25.32;40.27;102027.31;5203130;28;20068;-53
2022/09/11 11:11:31;;;;;;;4.97;1.85;;;;;;;25.07;40.70;102023.47;5205524;28;20412;-53
2022/09/11 11:14:33;;;;;;;5.15;2.65;;;;;;;24.94;41.12;102025.44;5196818;28;20111;-48
2022/09/11 11:17:18;;;;;;;10.27;2.20;;;;;;;24.81;41.13;102026.34;5198707;28;20480;-48
2022/09/11 11:20:18;;;;;;;8.02;1.92;;;;;;;24.69;41.38;102028.88;5201951;28;20040;-51
2022/09/11 11:23:17;;;;;;;5.78;2.40;;;;;;;24.77;41.32;102027.81;5195544;28;20051;-47
2022/09/11 11:26:04;;;;;;;6.00;2.10;;;;;;;24.74;41.39;102023.66;5195901;28;20078;-48
2022/09/11 11:28:57;;;;;;;8.20;2.22;;;;;;;24.83;41.10;102021.53;5198274;28;20076;-48
2022/09/11 11:31:47;;;;;;;4.40;2.58;;;;;;;24.80;41.17;102011.16;5198768;28;20443;-50
2022/09/11 11:34:34;;;;;;;3.60;2.30;;;;;;;24.74;41.47;102017.44;5198492;28;20079;-47
2022/09/11 11:37:13;;;;;;;3.30;2.15;;;;;;;24.65;41.68;102016.00;5196846;28;20072;-52
2022/09/11 11:39:57;;;;;;;5.90;2.13;;;;;;;24.75;41.77;102013.69;5201862;28;20371;-46
2022/09/11 11:42:37;;;;;;;3.88;1.98;;;;;;;24.97;41.44;102025.00;5198096;28;20526;-48
2022/09/11 11:45:21;;;;;;;6.05;1.95;;;;;;;25.03;41.45;102021.44;5207267;28;20063;-48
2022/09/11 11:47:54;;;;;;;4.78;3.08;;;;;;;25.07;41.62;102015.38;5206588;28;20144;-49
2022/09/11 11:50:33;;;;;;;8.25;2.00;;;;;;;25.18;41.71;102027.41;5201773;28;20190;-51
2022/09/11 11:53:13;;;;;;;5.95;2.30;;;;;;;25.17;41.93;102016.78;5196291;28;20084;-48
2022/09/11 11:55:56;;;;;;;9.20;2.40;;;;;;;25.21;42.06;102016.16;5202731;28;20497;-48
2022/09/11 11:58:43;;;;;;;8.25;2.50;;;;;;;25.15;42.12;102008.91;5198808;28;20101;-45
2022/09/11 12:01:24;;;;;;;6.57;2.78;;;;;;;25.13;42.44;102005.59;5192577;28;20471;-48
2022/09/11 12:04:04;;;;;;;5.43;2.30;;;;;;;25.16;42.63;102009.75;5202678;28;20349;-49
2022/09/11 12:06:37;;;;;;;8.13;2.80;;;;;;;25.12;42.75;102009.31;5200131;28;20465;-48
2022/09/11 12:09:10;;;;;;;6.47;2.15;;;;;;;25.10;43.03;102016.81;5200159;28;20395;-49